sensor_id;sensor_type;location;lat;lon;timestamp;P1;durP1;ratioP1;P2;durP2;ratioP2
49572;SDS011;35476;52.466;13.364;2023-01-29T00:00:30;7.85;;;5.43;;
49572;SDS011;35476;52.466;13.364;2023-01-29T00:02:55;9.70;;;5.35;;
49572;SDS011;35476;52.466;13.364;2023-01-29T00:05:20;6.57;;;5.30;;
49572;SDS011;35476;52.466;13.364;2023-01-29T00:07:45;10.23;;;5.90;;
49572;SDS011;35476;52.466;13.364;2023-01-29T00:10:10;9.25;;;6.07;;
49572;SDS011;35476;52.466;13.364;2023-01-29T00:12:36;8.32;;;5.13;;
49572;SDS011;35476;52.466;13.364;2023-01-29T00:15:01;8.43;;;6.80;;
49572;SDS011;35476;52.466;13.364;2023-01-29T00:17:26;9.27;;;5.70;;
49572;SDS011;35476;52.466;13.364;2023-01-29T00:19:52;8.25;;;5.75;;
49572;SDS011;35476;52.466;13.364;2023-01-29T00:22:17;8.83;;;6.20;;
49572;SDS011;35476;52.466;13.364;2023-01-29T00:24:42;13.25;;;6.95;;
49572;SDS011;35476;52.466;13.364;2023-01-29T00:27:08;10.15;;;5.40;;
49572;SDS011;35476;52.466;13.364;2023-01-29T00:29:33;9.38;;;5.55;;
49572;SDS011;35476;52.466;13.364;2023-01-29T00:31:58;8.30;;;6.27;;
49572;SDS011;35476;52.466;13.364;2023-01-29T00:34:23;8.97;;;6.43;;
49572;SDS011;35476;52.466;13.364;2023-01-29T00:36:49;9.63;;;6.23;;
49572;SDS011;35476;52.466;13.364;2023-01-29T00:39:14;8.35;;;6.25;;
49572;SDS011;35476;52.466;13.364;2023-01-29T00:41:39;7.90;;;6.27;;
49572;SDS011;35476;52.466;13.364;2023-01-29T00:44:36;9.20;;;6.57;;
49572;SDS011;35476;52.466;13.364;2023-01-29T00:47:20;11.10;;;8.07;;
49572;SDS011;35476;52.466;13.364;2023-01-29T00:49:54;13.68;;;7.65;;
49572;SDS011;35476;52.466;13.364;2023-01-29T00:52:20;12.65;;;7.65;;
49572;SDS011;35476;52.466;13.364;2023-01-29T00:54:48;10.50;;;7.95;;
49572;SDS011;35476;52.466;13.364;2023-01-29T00:57:13;12.73;;;7.87;;
49572;SDS011;35476;52.466;13.364;2023-01-29T00:59:38;10.20;;;7.47;;
49572;SDS011;35476;52.466;13.364;2023-01-29T01:02:03;11.77;;;7.70;;
49572;SDS011;35476;52.466;13.364;2023-01-29T01:04:47;12.55;;;8.13;;
49572;SDS011;35476;52.466;13.364;2023-01-29T01:07:12;9.47;;;7.50;;
49572;SDS011;35476;52.466;13.364;2023-01-29T01:09:38;9.50;;;7.43;;
49572;SDS011;35476;52.466;13.364;2023-01-29T01:12:22;12.10;;;8.20;;
49572;SDS011;35476;52.466;13.364;2023-01-29T01:14:47;9.65;;;7.55;;
49572;SDS011;35476;52.466;13.364;2023-01-29T01:17:12;11.85;;;9.32;;
49572;SDS011;35476;52.466;13.364;2023-01-29T01:19:39;14.63;;;9.55;;
49572;SDS011;35476;52.466;13.364;2023-01-29T01:22:04;11.50;;;7.78;;
49572;SDS011;35476;52.466;13.364;2023-01-29T01:24:29;10.68;;;8.43;;
49572;SDS011;35476;52.466;13.364;2023-01-29T01:26:54;14.75;;;8.80;;
49572;SDS011;35476;52.466;13.364;2023-01-29T01:29:20;12.40;;;8.80;;
49572;SDS011;35476;52.466;13.364;2023-01-29T01:31:45;13.63;;;9.02;;
49572;SDS011;35476;52.466;13.364;2023-01-29T01:34:10;13.40;;;9.35;;
49572;SDS011;35476;52.466;13.364;2023-01-29T01:36:35;14.50;;;9.10;;
49572;SDS011;35476;52.466;13.364;2023-01-29T01:39:01;13.25;;;8.27;;
49572;SDS011;35476;52.466;13.364;2023-01-29T01:41:26;14.63;;;9.60;;
49572;SDS011;35476;52.466;13.364;2023-01-29T01:43:55;13.73;;;9.73;;
49572;SDS011;35476;52.466;13.364;2023-01-29T01:46:21;11.45;;;9.13;;
49572;SDS011;35476;52.466;13.364;2023-01-29T01:48:49;11.30;;;9.82;;
49572;SDS011;35476;52.466;13.364;2023-01-29T01:51:15;13.05;;;9.98;;
49572;SDS011;35476;52.466;13.364;2023-01-29T01:53:46;14.95;;;10.02;;
49572;SDS011;35476;52.466;13.364;2023-01-29T01:56:15;9.10;;;7.37;;
49572;SDS011;35476;52.466;13.364;2023-01-29T01:58:43;12.95;;;9.98;;
49572;SDS011;35476;52.466;13.364;2023-01-29T02:01:11;13.18;;;9.90;;
49572;SDS011;35476;52.466;13.364;2023-01-29T02:03:41;17.05;;;9.63;;
49572;SDS011;35476;52.466;13.364;2023-01-29T02:06:25;17.48;;;10.07;;
49572;SDS011;35476;52.466;13.364;2023-01-29T02:09:15;13.50;;;10.60;;
49572;SDS011;35476;52.466;13.364;2023-01-29T02:12:12;13.05;;;9.77;;
49572;SDS011;35476;52.466;13.364;2023-01-29T02:14:38;12.88;;;9.65;;
49572;SDS011;35476;52.466;13.364;2023-01-29T02:17:05;13.73;;;9.40;;
49572;SDS011;35476;52.466;13.364;2023-01-29T02:27:13;13.85;;;9.65;;
49572;SDS011;35476;52.466;13.364;2023-01-29T02:29:43;10.57;;;8.82;;
49572;SDS011;35476;52.466;13.364;2023-01-29T02:37:48;16.77;;;10.75;;
49572;SDS011;35476;52.466;13.364;2023-01-29T02:42:50;14.23;;;9.73;;
49572;SDS011;35476;52.466;13.364;2023-01-29T02:45:17;15.73;;;9.77;;
49572;SDS011;35476;52.466;13.364;2023-01-29T02:47:46;11.57;;;8.73;;
49572;SDS011;35476;52.466;13.364;2023-01-29T02:52:39;14.30;;;9.77;;
49572;SDS011;35476;52.466;13.364;2023-01-29T02:55:09;13.18;;;9.70;;
49572;SDS011;35476;52.466;13.364;2023-01-29T02:57:37;13.48;;;10.20;;
49572;SDS011;35476;52.466;13.364;2023-01-29T03:02:45;13.90;;;9.98;;
49572;SDS011;35476;52.466;13.364;2023-01-29T03:05:13;15.73;;;9.98;;
49572;SDS011;35476;52.466;13.364;2023-01-29T03:07:40;13.80;;;9.98;;
49572;SDS011;35476;52.466;13.364;2023-01-29T03:12:45;15.30;;;9.93;;
49572;SDS011;35476;52.466;13.364;2023-01-29T03:15:14;14.07;;;10.63;;
49572;SDS011;35476;52.466;13.364;2023-01-29T03:17:52;13.60;;;10.52;;
49572;SDS011;35476;52.466;13.364;2023-01-29T03:20:19;16.70;;;10.07;;
49572;SDS011;35476;52.466;13.364;2023-01-29T03:22:48;16.00;;;10.88;;
49572;SDS011;35476;52.466;13.364;2023-01-29T03:25:16;15.77;;;10.95;;
49572;SDS011;35476;52.466;13.364;2023-01-29T03:28:00;15.40;;;10.65;;
49572;SDS011;35476;52.466;13.364;2023-01-29T03:30:49;17.30;;;10.70;;
49572;SDS011;35476;52.466;13.364;2023-01-29T03:33:38;13.60;;;10.70;;
49572;SDS011;35476;52.466;13.364;2023-01-29T03:36:05;13.35;;;10.10;;
49572;SDS011;35476;52.466;13.364;2023-01-29T03:38:32;16.40;;;12.10;;
49572;SDS011;35476;52.466;13.364;2023-01-29T03:40:58;15.30;;;11.37;;
49572;SDS011;35476;52.466;13.364;2023-01-29T03:46:00;17.57;;;12.73;;
49572;SDS011;35476;52.466;13.364;2023-01-29T03:48:30;16.20;;;11.90;;
49572;SDS011;35476;52.466;13.364;2023-01-29T03:51:00;15.80;;;11.80;;
49572;SDS011;35476;52.466;13.364;2023-01-29T03:54:10;15.80;;;11.30;;
49572;SDS011;35476;52.466;13.364;2023-01-29T03:58:57;13.17;;;10.87;;
49572;SDS011;35476;52.466;13.364;2023-01-29T04:01:26;14.80;;;11.15;;
49572;SDS011;35476;52.466;13.364;2023-01-29T04:03:55;17.23;;;10.45;;
49572;SDS011;35476;52.466;13.364;2023-01-29T04:06:23;17.23;;;11.93;;
49572;SDS011;35476;52.466;13.364;2023-01-29T04:11:21;14.50;;;10.90;;
49572;SDS011;35476;52.466;13.364;2023-01-29T04:13:46;16.98;;;11.13;;
49572;SDS011;35476;52.466;13.364;2023-01-29T04:16:14;15.38;;;11.80;;
49572;SDS011;35476;52.466;13.364;2023-01-29T04:18:43;16.52;;;11.48;;
49572;SDS011;35476;52.466;13.364;2023-01-29T04:21:08;15.27;;;11.18;;
49572;SDS011;35476;52.466;13.364;2023-01-29T04:23:33;15.80;;;10.60;;
49572;SDS011;35476;52.466;13.364;2023-01-29T04:28:47;16.15;;;10.57;;
49572;SDS011;35476;52.466;13.364;2023-01-29T04:31:15;19.88;;;13.48;;
49572;SDS011;35476;52.466;13.364;2023-01-29T04:43:38;15.07;;;12.50;;
49572;SDS011;35476;52.466;13.364;2023-01-29T04:46:12;18.88;;;12.05;;
49572;SDS011;35476;52.466;13.364;2023-01-29T04:54:04;18.98;;;12.68;;
49572;SDS011;35476;52.466;13.364;2023-01-29T04:56:52;19.35;;;12.68;;
49572;SDS011;35476;52.466;13.364;2023-01-29T04:59:23;17.98;;;13.18;;
49572;SDS011;35476;52.466;13.364;2023-01-29T05:01:52;17.15;;;12.93;;
49572;SDS011;35476;52.466;13.364;2023-01-29T05:04:17;23.07;;;14.17;;
49572;SDS011;35476;52.466;13.364;2023-01-29T05:06:43;21.15;;;14.35;;
49572;SDS011;35476;52.466;13.364;2023-01-29T05:09:11;22.10;;;14.48;;
49572;SDS011;35476;52.466;13.364;2023-01-29T05:11:37;24.58;;;17.90;;
49572;SDS011;35476;52.466;13.364;2023-01-29T05:14:03;28.55;;;18.00;;
49572;SDS011;35476;52.466;13.364;2023-01-29T05:16:29;21.23;;;15.18;;
49572;SDS011;35476;52.466;13.364;2023-01-29T05:19:05;33.38;;;17.35;;
49572;SDS011;35476;52.466;13.364;2023-01-29T05:21:31;21.95;;;16.88;;
49572;SDS011;35476;52.466;13.364;2023-01-29T05:24:07;27.73;;;15.17;;
49572;SDS011;35476;52.466;13.364;2023-01-29T05:26:32;27.90;;;17.85;;
49572;SDS011;35476;52.466;13.364;2023-01-29T05:31:42;27.80;;;16.80;;
49572;SDS011;35476;52.466;13.364;2023-01-29T05:34:08;29.63;;;17.50;;
49572;SDS011;35476;52.466;13.364;2023-01-29T05:36:33;29.33;;;17.88;;
49572;SDS011;35476;52.466;13.364;2023-01-29T05:38:58;60.83;;;22.67;;
49572;SDS011;35476;52.466;13.364;2023-01-29T05:41:24;32.40;;;18.70;;
49572;SDS011;35476;52.466;13.364;2023-01-29T05:43:49;32.20;;;19.50;;
49572;SDS011;35476;52.466;13.364;2023-01-29T05:46:14;375.43;;;55.33;;
49572;SDS011;35476;52.466;13.364;2023-01-29T05:48:39;31.87;;;18.83;;
49572;SDS011;35476;52.466;13.364;2023-01-29T05:51:04;34.00;;;20.40;;
49572;SDS011;35476;52.466;13.364;2023-01-29T05:53:30;39.53;;;20.75;;
49572;SDS011;35476;52.466;13.364;2023-01-29T05:55:55;31.48;;;19.38;;
49572;SDS011;35476;52.466;13.364;2023-01-29T05:58:21;39.53;;;20.98;;
49572;SDS011;35476;52.466;13.364;2023-01-29T06:00:47;33.40;;;21.00;;
49572;SDS011;35476;52.466;13.364;2023-01-29T06:03:12;70.88;;;23.55;;
49572;SDS011;35476;52.466;13.364;2023-01-29T06:05:37;35.23;;;21.90;;
49572;SDS011;35476;52.466;13.364;2023-01-29T06:08:03;31.52;;;20.90;;
49572;SDS011;35476;52.466;13.364;2023-01-29T06:10:28;31.98;;;20.35;;
49572;SDS011;35476;52.466;13.364;2023-01-29T06:12:53;36.30;;;21.20;;
49572;SDS011;35476;52.466;13.364;2023-01-29T06:15:18;30.67;;;20.23;;
49572;SDS011;35476;52.466;13.364;2023-01-29T06:17:44;35.00;;;20.93;;
49572;SDS011;35476;52.466;13.364;2023-01-29T06:20:09;34.25;;;23.00;;
49572;SDS011;35476;52.466;13.364;2023-01-29T06:22:34;32.65;;;20.23;;
49572;SDS011;35476;52.466;13.364;2023-01-29T06:24:59;39.85;;;22.45;;
49572;SDS011;35476;52.466;13.364;2023-01-29T06:27:25;32.77;;;21.40;;
49572;SDS011;35476;52.466;13.364;2023-01-29T06:29:50;28.45;;;19.83;;
49572;SDS011;35476;52.466;13.364;2023-01-29T06:32:15;32.97;;;21.37;;
49572;SDS011;35476;52.466;13.364;2023-01-29T06:34:40;38.27;;;22.80;;
49572;SDS011;35476;52.466;13.364;2023-01-29T06:37:05;35.80;;;21.43;;
49572;SDS011;35476;52.466;13.364;2023-01-29T06:39:32;31.73;;;20.80;;
49572;SDS011;35476;52.466;13.364;2023-01-29T06:41:57;35.80;;;22.95;;
49572;SDS011;35476;52.466;13.364;2023-01-29T06:44:22;33.00;;;21.73;;
49572;SDS011;35476;52.466;13.364;2023-01-29T06:46:47;31.53;;;22.20;;
49572;SDS011;35476;52.466;13.364;2023-01-29T06:49:12;34.20;;;21.02;;
49572;SDS011;35476;52.466;13.364;2023-01-29T06:51:37;34.03;;;21.43;;
49572;SDS011;35476;52.466;13.364;2023-01-29T06:54:03;32.45;;;21.35;;
49572;SDS011;35476;52.466;13.364;2023-01-29T06:56:28;30.48;;;20.45;;
49572;SDS011;35476;52.466;13.364;2023-01-29T06:58:53;49.40;;;24.17;;
49572;SDS011;35476;52.466;13.364;2023-01-29T07:01:18;34.67;;;21.63;;
49572;SDS011;35476;52.466;13.364;2023-01-29T07:03:43;39.23;;;21.87;;
49572;SDS011;35476;52.466;13.364;2023-01-29T07:06:09;37.05;;;23.20;;
49572;SDS011;35476;52.466;13.364;2023-01-29T07:08:35;34.78;;;22.60;;
49572;SDS011;35476;52.466;13.364;2023-01-29T07:11:00;31.35;;;21.27;;
49572;SDS011;35476;52.466;13.364;2023-01-29T07:13:26;37.60;;;20.70;;
49572;SDS011;35476;52.466;13.364;2023-01-29T07:15:51;34.97;;;21.07;;
49572;SDS011;35476;52.466;13.364;2023-01-29T07:18:16;39.33;;;22.77;;
49572;SDS011;35476;52.466;13.364;2023-01-29T07:20:41;39.83;;;23.30;;
49572;SDS011;35476;52.466;13.364;2023-01-29T07:23:13;36.38;;;21.60;;
49572;SDS011;35476;52.466;13.364;2023-01-29T07:25:39;34.05;;;23.23;;
49572;SDS011;35476;52.466;13.364;2023-01-29T07:28:04;32.67;;;21.00;;
49572;SDS011;35476;52.466;13.364;2023-01-29T07:30:30;34.33;;;22.25;;
49572;SDS011;35476;52.466;13.364;2023-01-29T07:32:58;41.20;;;25.17;;
49572;SDS011;35476;52.466;13.364;2023-01-29T07:35:24;35.70;;;22.10;;
49572;SDS011;35476;52.466;13.364;2023-01-29T07:37:50;41.50;;;23.37;;
49572;SDS011;35476;52.466;13.364;2023-01-29T07:40:15;43.22;;;23.80;;
49572;SDS011;35476;52.466;13.364;2023-01-29T07:42:40;39.45;;;24.02;;
49572;SDS011;35476;52.466;13.364;2023-01-29T07:45:08;39.88;;;24.20;;
49572;SDS011;35476;52.466;13.364;2023-01-29T07:47:33;42.55;;;22.83;;
49572;SDS011;35476;52.466;13.364;2023-01-29T07:49:58;43.72;;;24.88;;
49572;SDS011;35476;52.466;13.364;2023-01-29T07:52:24;39.92;;;22.85;;
49572;SDS011;35476;52.466;13.364;2023-01-29T07:54:49;42.07;;;22.70;;
49572;SDS011;35476;52.466;13.364;2023-01-29T07:57:14;42.10;;;24.80;;
49572;SDS011;35476;52.466;13.364;2023-01-29T07:59:39;43.63;;;23.93;;
49572;SDS011;35476;52.466;13.364;2023-01-29T08:02:04;37.27;;;23.50;;
49572;SDS011;35476;52.466;13.364;2023-01-29T08:04:30;37.50;;;23.75;;
49572;SDS011;35476;52.466;13.364;2023-01-29T08:06:55;136.80;;;37.77;;
49572;SDS011;35476;52.466;13.364;2023-01-29T08:09:20;42.53;;;23.90;;
49572;SDS011;35476;52.466;13.364;2023-01-29T08:11:45;59.30;;;24.93;;
49572;SDS011;35476;52.466;13.364;2023-01-29T08:14:10;200.67;;;45.63;;
49572;SDS011;35476;52.466;13.364;2023-01-29T08:16:35;49.07;;;25.43;;
49572;SDS011;35476;52.466;13.364;2023-01-29T08:19:02;102.90;;;31.23;;
49572;SDS011;35476;52.466;13.364;2023-01-29T08:21:27;41.42;;;24.08;;
49572;SDS011;35476;52.466;13.364;2023-01-29T08:23:53;46.90;;;24.92;;
49572;SDS011;35476;52.466;13.364;2023-01-29T08:26:18;48.27;;;25.30;;
49572;SDS011;35476;52.466;13.364;2023-01-29T08:28:43;43.75;;;24.73;;
49572;SDS011;35476;52.466;13.364;2023-01-29T08:31:15;42.63;;;24.87;;
49572;SDS011;35476;52.466;13.364;2023-01-29T08:33:41;41.05;;;24.50;;
49572;SDS011;35476;52.466;13.364;2023-01-29T08:36:06;44.10;;;23.38;;
49572;SDS011;35476;52.466;13.364;2023-01-29T08:38:31;46.08;;;25.88;;
49572;SDS011;35476;52.466;13.364;2023-01-29T08:40:57;48.45;;;26.55;;
49572;SDS011;35476;52.466;13.364;2023-01-29T08:43:22;52.23;;;25.57;;
49572;SDS011;35476;52.466;13.364;2023-01-29T08:45:47;46.57;;;23.97;;
49572;SDS011;35476;52.466;13.364;2023-01-29T08:48:12;49.40;;;26.95;;
49572;SDS011;35476;52.466;13.364;2023-01-29T08:50:37;49.58;;;26.30;;
49572;SDS011;35476;52.466;13.364;2023-01-29T08:53:03;38.03;;;23.25;;
49572;SDS011;35476;52.466;13.364;2023-01-29T08:55:31;65.13;;;27.55;;
49572;SDS011;35476;52.466;13.364;2023-01-29T08:57:56;42.23;;;24.23;;
49572;SDS011;35476;52.466;13.364;2023-01-29T09:00:21;37.23;;;23.80;;
49572;SDS011;35476;52.466;13.364;2023-01-29T09:02:47;41.75;;;24.58;;
49572;SDS011;35476;52.466;13.364;2023-01-29T09:05:12;52.22;;;27.10;;
49572;SDS011;35476;52.466;13.364;2023-01-29T09:07:37;40.83;;;24.73;;
49572;SDS011;35476;52.466;13.364;2023-01-29T09:10:03;39.60;;;23.27;;
49572;SDS011;35476;52.466;13.364;2023-01-29T09:12:28;36.60;;;22.80;;
49572;SDS011;35476;52.466;13.364;2023-01-29T09:14:53;40.10;;;23.57;;
49572;SDS011;35476;52.466;13.364;2023-01-29T09:17:18;36.70;;;23.10;;
49572;SDS011;35476;52.466;13.364;2023-01-29T09:19:43;39.10;;;24.10;;
49572;SDS011;35476;52.466;13.364;2023-01-29T09:22:09;36.10;;;22.43;;
49572;SDS011;35476;52.466;13.364;2023-01-29T09:24:34;36.22;;;21.98;;
49572;SDS011;35476;52.466;13.364;2023-01-29T09:26:59;39.33;;;22.17;;
49572;SDS011;35476;52.466;13.364;2023-01-29T09:29:25;36.00;;;23.33;;
49572;SDS011;35476;52.466;13.364;2023-01-29T09:31:50;33.88;;;22.10;;
49572;SDS011;35476;52.466;13.364;2023-01-29T09:34:15;32.65;;;20.73;;
49572;SDS011;35476;52.466;13.364;2023-01-29T09:36:40;33.03;;;20.47;;
49572;SDS011;35476;52.466;13.364;2023-01-29T09:39:05;33.60;;;20.97;;
49572;SDS011;35476;52.466;13.364;2023-01-29T09:47:07;30.92;;;19.52;;
49572;SDS011;35476;52.466;13.364;2023-01-29T09:49:35;25.48;;;17.85;;
49572;SDS011;35476;52.466;13.364;2023-01-29T09:52:12;31.67;;;18.42;;
49572;SDS011;35476;52.466;13.364;2023-01-29T09:54:49;28.05;;;18.77;;
49572;SDS011;35476;52.466;13.364;2023-01-29T09:57:23;25.95;;;18.83;;
49572;SDS011;35476;52.466;13.364;2023-01-29T09:59:49;28.38;;;18.27;;
49572;SDS011;35476;52.466;13.364;2023-01-29T10:02:58;25.20;;;17.63;;
49572;SDS011;35476;52.466;13.364;2023-01-29T10:05:21;25.25;;;17.45;;
49572;SDS011;35476;52.466;13.364;2023-01-29T10:12:51;27.10;;;15.93;;
49572;SDS011;35476;52.466;13.364;2023-01-29T10:25:35;17.05;;;13.65;;
49572;SDS011;35476;52.466;13.364;2023-01-29T10:28:04;22.63;;;14.52;;
49572;SDS011;35476;52.466;13.364;2023-01-29T10:30:39;17.60;;;12.85;;
49572;SDS011;35476;52.466;13.364;2023-01-29T10:33:09;17.42;;;13.13;;
49572;SDS011;35476;52.466;13.364;2023-01-29T10:35:43;16.70;;;12.48;;
49572;SDS011;35476;52.466;13.364;2023-01-29T10:40:36;15.25;;;11.15;;
49572;SDS011;35476;52.466;13.364;2023-01-29T10:43:16;16.15;;;12.80;;
49572;SDS011;35476;52.466;13.364;2023-01-29T10:50:46;12.63;;;10.43;;
49572;SDS011;35476;52.466;13.364;2023-01-29T10:58:29;14.43;;;11.30;;
49572;SDS011;35476;52.466;13.364;2023-01-29T11:00:55;15.93;;;11.82;;
49572;SDS011;35476;52.466;13.364;2023-01-29T11:03:22;15.93;;;11.95;;
49572;SDS011;35476;52.466;13.364;2023-01-29T11:08:52;14.40;;;11.77;;
49572;SDS011;35476;52.466;13.364;2023-01-29T11:11:18;14.75;;;11.15;;
49572;SDS011;35476;52.466;13.364;2023-01-29T11:13:47;16.52;;;11.05;;
49572;SDS011;35476;52.466;13.364;2023-01-29T11:16:14;17.35;;;12.13;;
49572;SDS011;35476;52.466;13.364;2023-01-29T11:21:13;18.08;;;10.85;;
49572;SDS011;35476;52.466;13.364;2023-01-29T11:23:40;16.15;;;12.45;;
49572;SDS011;35476;52.466;13.364;2023-01-29T11:26:05;15.30;;;10.60;;
49572;SDS011;35476;52.466;13.364;2023-01-29T11:33:49;13.60;;;10.70;;
49572;SDS011;35476;52.466;13.364;2023-01-29T11:36:29;15.20;;;10.80;;
49572;SDS011;35476;52.466;13.364;2023-01-29T11:44:18;15.18;;;9.55;;
49572;SDS011;35476;52.466;13.364;2023-01-29T11:46:44;15.25;;;10.25;;
49572;SDS011;35476;52.466;13.364;2023-01-29T11:49:14;16.70;;;10.88;;
49572;SDS011;35476;52.466;13.364;2023-01-29T11:51:48;14.18;;;11.02;;
49572;SDS011;35476;52.466;13.364;2023-01-29T11:54:15;16.73;;;11.57;;
49572;SDS011;35476;52.466;13.364;2023-01-29T11:56:42;14.60;;;9.98;;
49572;SDS011;35476;52.466;13.364;2023-01-29T12:01:52;16.23;;;10.73;;
49572;SDS011;35476;52.466;13.364;2023-01-29T12:04:19;14.02;;;10.32;;
49572;SDS011;35476;52.466;13.364;2023-01-29T12:06:44;11.60;;;9.85;;
49572;SDS011;35476;52.466;13.364;2023-01-29T12:09:16;14.48;;;11.30;;
49572;SDS011;35476;52.466;13.364;2023-01-29T12:11:42;16.55;;;10.90;;
49572;SDS011;35476;52.466;13.364;2023-01-29T12:14:29;12.77;;;10.45;;
49572;SDS011;35476;52.466;13.364;2023-01-29T12:19:27;13.70;;;10.30;;
49572;SDS011;35476;52.466;13.364;2023-01-29T12:24:42;12.85;;;9.20;;
49572;SDS011;35476;52.466;13.364;2023-01-29T12:27:11;11.00;;;9.23;;
49572;SDS011;35476;52.466;13.364;2023-01-29T12:32:18;15.02;;;11.10;;
49572;SDS011;35476;52.466;13.364;2023-01-29T12:35:00;12.30;;;10.00;;
49572;SDS011;35476;52.466;13.364;2023-01-29T12:37:43;17.90;;;11.00;;
49572;SDS011;35476;52.466;13.364;2023-01-29T12:40:10;13.57;;;9.68;;
49572;SDS011;35476;52.466;13.364;2023-01-29T12:42:36;11.80;;;9.32;;
49572;SDS011;35476;52.466;13.364;2023-01-29T12:45:05;14.07;;;10.25;;
49572;SDS011;35476;52.466;13.364;2023-01-29T12:47:36;14.63;;;10.48;;
49572;SDS011;35476;52.466;13.364;2023-01-29T12:50:08;16.65;;;10.57;;
49572;SDS011;35476;52.466;13.364;2023-01-29T12:52:42;16.60;;;11.50;;
49572;SDS011;35476;52.466;13.364;2023-01-29T13:00:12;14.57;;;11.45;;
49572;SDS011;35476;52.466;13.364;2023-01-29T13:02:39;18.65;;;11.15;;
49572;SDS011;35476;52.466;13.364;2023-01-29T13:05:14;14.25;;;11.23;;
49572;SDS011;35476;52.466;13.364;2023-01-29T13:10:11;13.40;;;9.93;;
49572;SDS011;35476;52.466;13.364;2023-01-29T13:12:38;17.17;;;10.95;;
49572;SDS011;35476;52.466;13.364;2023-01-29T13:15:16;13.70;;;10.60;;
49572;SDS011;35476;52.466;13.364;2023-01-29T13:17:57;14.52;;;10.80;;
49572;SDS011;35476;52.466;13.364;2023-01-29T13:20:31;17.13;;;10.45;;
49572;SDS011;35476;52.466;13.364;2023-01-29T13:23:02;16.65;;;10.13;;
49572;SDS011;35476;52.466;13.364;2023-01-29T13:25:28;13.65;;;9.25;;
49572;SDS011;35476;52.466;13.364;2023-01-29T13:27:53;13.93;;;10.53;;
49572;SDS011;35476;52.466;13.364;2023-01-29T13:32:53;14.00;;;10.80;;
49572;SDS011;35476;52.466;13.364;2023-01-29T13:35:19;14.05;;;9.95;;
49572;SDS011;35476;52.466;13.364;2023-01-29T13:37:47;14.43;;;10.05;;
49572;SDS011;35476;52.466;13.364;2023-01-29T13:40:46;15.18;;;11.13;;
49572;SDS011;35476;52.466;13.364;2023-01-29T13:43:04;13.52;;;10.43;;
49572;SDS011;35476;52.466;13.364;2023-01-29T13:45:35;17.05;;;10.88;;
49572;SDS011;35476;52.466;13.364;2023-01-29T13:48:09;14.50;;;11.07;;
49572;SDS011;35476;52.466;13.364;2023-01-29T13:50:39;14.10;;;10.25;;
49572;SDS011;35476;52.466;13.364;2023-01-29T13:53:05;14.07;;;11.13;;
49572;SDS011;35476;52.466;13.364;2023-01-29T13:55:35;15.75;;;11.80;;
49572;SDS011;35476;52.466;13.364;2023-01-29T13:58:05;17.38;;;10.95;;
49572;SDS011;35476;52.466;13.364;2023-01-29T14:08:01;18.08;;;11.55;;
49572;SDS011;35476;52.466;13.364;2023-01-29T14:10:31;18.80;;;12.57;;
49572;SDS011;35476;52.466;13.364;2023-01-29T14:15:26;18.05;;;11.38;;
49572;SDS011;35476;52.466;13.364;2023-01-29T14:18:34;18.45;;;13.30;;
49572;SDS011;35476;52.466;13.364;2023-01-29T14:23:06;16.70;;;11.50;;
49572;SDS011;35476;52.466;13.364;2023-01-29T14:25:36;17.17;;;13.30;;
49572;SDS011;35476;52.466;13.364;2023-01-29T14:28:02;17.25;;;12.60;;
49572;SDS011;35476;52.466;13.364;2023-01-29T14:30:31;21.20;;;14.88;;
49572;SDS011;35476;52.466;13.364;2023-01-29T14:32:58;19.20;;;13.90;;
49572;SDS011;35476;52.466;13.364;2023-01-29T14:35:26;20.55;;;15.13;;
49572;SDS011;35476;52.466;13.364;2023-01-29T14:37:59;20.92;;;14.18;;
49572;SDS011;35476;52.466;13.364;2023-01-29T14:40:26;22.60;;;14.63;;
49572;SDS011;35476;52.466;13.364;2023-01-29T14:52:52;27.45;;;16.13;;
49572;SDS011;35476;52.466;13.364;2023-01-29T14:58:02;21.63;;;15.68;;
49572;SDS011;35476;52.466;13.364;2023-01-29T15:00:33;24.65;;;15.25;;
49572;SDS011;35476;52.466;13.364;2023-01-29T15:03:01;26.55;;;16.60;;
49572;SDS011;35476;52.466;13.364;2023-01-29T15:05:28;28.08;;;16.08;;
49572;SDS011;35476;52.466;13.364;2023-01-29T15:08:12;23.75;;;15.93;;
49572;SDS011;35476;52.466;13.364;2023-01-29T15:11:24;24.85;;;17.17;;
49572;SDS011;35476;52.466;13.364;2023-01-29T15:13:49;22.45;;;15.35;;
49572;SDS011;35476;52.466;13.364;2023-01-29T15:16:22;22.83;;;15.25;;
49572;SDS011;35476;52.466;13.364;2023-01-29T15:18:49;23.17;;;15.88;;
49572;SDS011;35476;52.466;13.364;2023-01-29T15:21:18;33.30;;;19.27;;
49572;SDS011;35476;52.466;13.364;2023-01-29T15:23:44;21.30;;;15.95;;
49572;SDS011;35476;52.466;13.364;2023-01-29T15:26:18;23.25;;;17.35;;
49572;SDS011;35476;52.466;13.364;2023-01-29T15:28:44;24.27;;;16.67;;
49572;SDS011;35476;52.466;13.364;2023-01-29T15:31:13;21.85;;;15.27;;
49572;SDS011;35476;52.466;13.364;2023-01-29T15:33:41;23.05;;;15.15;;
49572;SDS011;35476;52.466;13.364;2023-01-29T15:36:11;25.42;;;16.00;;
49572;SDS011;35476;52.466;13.364;2023-01-29T15:38:40;23.80;;;15.93;;
49572;SDS011;35476;52.466;13.364;2023-01-29T15:41:16;21.17;;;14.87;;
49572;SDS011;35476;52.466;13.364;2023-01-29T15:43:42;18.48;;;13.93;;
49572;SDS011;35476;52.466;13.364;2023-01-29T15:48:40;19.73;;;13.50;;
49572;SDS011;35476;52.466;13.364;2023-01-29T15:51:06;23.58;;;17.25;;
49572;SDS011;35476;52.466;13.364;2023-01-29T15:53:37;23.40;;;15.95;;
49572;SDS011;35476;52.466;13.364;2023-01-29T15:56:08;25.10;;;15.02;;
49572;SDS011;35476;52.466;13.364;2023-01-29T15:58:34;19.48;;;14.35;;
49572;SDS011;35476;52.466;13.364;2023-01-29T16:00:59;24.33;;;15.55;;
49572;SDS011;35476;52.466;13.364;2023-01-29T16:03:25;20.92;;;14.45;;
49572;SDS011;35476;52.466;13.364;2023-01-29T16:05:52;21.52;;;14.43;;
49572;SDS011;35476;52.466;13.364;2023-01-29T16:08:17;21.88;;;16.05;;
49572;SDS011;35476;52.466;13.364;2023-01-29T16:10:44;20.85;;;15.25;;
49572;SDS011;35476;52.466;13.364;2023-01-29T16:13:15;20.67;;;14.95;;
49572;SDS011;35476;52.466;13.364;2023-01-29T16:15:52;20.55;;;15.18;;
49572;SDS011;35476;52.466;13.364;2023-01-29T16:18:19;23.15;;;15.68;;
49572;SDS011;35476;52.466;13.364;2023-01-29T16:20:45;25.55;;;15.88;;
49572;SDS011;35476;52.466;13.364;2023-01-29T16:23:21;23.02;;;16.95;;
49572;SDS011;35476;52.466;13.364;2023-01-29T16:25:48;26.45;;;17.42;;
49572;SDS011;35476;52.466;13.364;2023-01-29T16:28:14;26.08;;;17.13;;
49572;SDS011;35476;52.466;13.364;2023-01-29T16:30:40;22.88;;;16.10;;
49572;SDS011;35476;52.466;13.364;2023-01-29T16:33:06;21.75;;;15.77;;
49572;SDS011;35476;52.466;13.364;2023-01-29T16:35:34;23.98;;;15.77;;
49572;SDS011;35476;52.466;13.364;2023-01-29T16:38:02;24.70;;;17.08;;
49572;SDS011;35476;52.466;13.364;2023-01-29T16:40:30;26.38;;;17.60;;
49572;SDS011;35476;52.466;13.364;2023-01-29T16:45:42;24.73;;;16.48;;
49572;SDS011;35476;52.466;13.364;2023-01-29T16:48:25;24.17;;;16.40;;
49572;SDS011;35476;52.466;13.364;2023-01-29T16:51:01;24.23;;;16.25;;